Time;durP1;ratioP1;P1;durP2;ratioP2;P2;SDS_P1;SDS_P2;PMS_P1;PMS_P2;Temp;Humidity;BMP_temperature;BMP_pressure;BME280_temperature;BME280_humidity;BME280_pressure;Samples;Min_cycle;Max_cycle;Signal;HPM_P1;HPM_P2
2023/04/09 00:00:33;;;;;;;11.73;5.97;;;;;;;7.00;100.00;100482.09;5110365;28;20023;-42
2023/04/09 00:02:58;;;;;;;9.93;5.85;;;;;;;6.77;100.00;100480.41;5110212;28;20039;-40
2023/04/09 00:05:24;;;;;;;13.02;6.15;;;;;;;6.87;100.00;100487.25;5109868;28;20032;-40
2023/04/09 00:07:50;;;;;;;11.65;6.00;;;;;;;6.74;100.00;100477.28;5109859;28;20024;-41
2023/04/09 00:10:15;;;;;;;10.93;5.63;;;;;;;6.77;100.00;100483.03;5110076;28;20084;-41
2023/04/09 00:12:40;;;;;;;11.57;5.63;;;;;;;6.64;100.00;100475.75;5110118;28;20032;-41
2023/04/09 00:15:06;;;;;;;11.73;6.18;;;;;;;6.84;100.00;100481.31;5110041;28;20027;-41
2023/04/09 00:17:32;;;;;;;10.30;5.75;;;;;;;6.77;100.00;100491.00;5110027;28;20055;-40
2023/04/09 00:19:57;;;;;;;10.88;5.90;;;;;;;6.60;100.00;100478.94;5110095;28;20584;-41
2023/04/09 00:22:23;;;;;;;10.40;5.72;;;;;;;6.67;100.00;100485.16;5109631;28;20027;-40
2023/04/09 00:24:48;;;;;;;10.43;5.60;;;;;;;6.62;100.00;100485.72;5109772;28;20038;-40
2023/04/09 00:27:14;;;;;;;10.48;6.35;;;;;;;6.54;100.00;100479.66;5109961;28;20024;-40
2023/04/09 00:29:39;;;;;;;11.25;5.78;;;;;;;6.55;100.00;100490.06;5109635;28;20059;-41
2023/04/09 00:32:05;;;;;;;10.60;5.90;;;;;;;6.79;100.00;100496.13;5109835;28;20385;-41
2023/04/09 00:34:31;;;;;;;10.43;5.07;;;;;;;6.52;100.00;100486.97;5109341;28;20034;-41
2023/04/09 00:36:56;;;;;;;11.75;5.65;;;;;;;6.58;100.00;100496.88;5110023;28;20032;-41
2023/04/09 00:39:21;;;;;;;13.88;7.43;;;;;;;6.71;100.00;100502.34;5109704;28;20051;-43
2023/04/09 00:41:47;;;;;;;12.15;7.13;;;;;;;6.63;100.00;100499.78;5109419;28;20028;-41
2023/04/09 00:44:12;;;;;;;10.68;5.65;;;;;;;6.78;100.00;100497.97;5109471;28;20023;-40
2023/04/09 00:46:38;;;;;;;11.48;6.32;;;;;;;6.66;100.00;100499.41;5109511;28;20418;-40
2023/04/09 00:49:04;;;;;;;11.85;6.38;;;;;;;6.77;100.00;100503.44;5109187;28;20485;-40
2023/04/09 00:51:30;;;;;;;12.77;7.05;;;;;;;6.83;100.00;100508.00;5109399;28;20059;-41
2023/04/09 00:53:56;;;;;;;11.90;6.88;;;;;;;7.12;100.00;100512.44;5109397;28;20514;-40
2023/04/09 00:56:22;;;;;;;12.65;7.18;;;;;;;6.91;100.00;100509.75;5109255;28;20526;-39
2023/04/09 00:58:48;;;;;;;11.98;6.40;;;;;;;6.78;100.00;100513.88;5109071;28;20412;-40
2023/04/09 01:01:13;;;;;;;12.70;6.72;;;;;;;6.74;100.00;100517.03;5109340;28;20546;-40
2023/04/09 01:03:39;;;;;;;12.38;6.50;;;;;;;6.83;100.00;100510.66;5108972;28;20024;-40
2023/04/09 01:06:21;;;;;;;11.45;6.45;;;;;;;6.77;100.00;100517.50;5108881;28;20048;-40
2023/04/09 01:09:13;;;;;;;14.40;6.95;;;;;;;6.50;100.00;100489.81;5108781;28;20500;-41
2023/04/09 01:12:09;;;;;;;15.77;6.90;;;;;;;6.84;100.00;100515.78;5108802;28;20039;-40
2023/04/09 01:14:44;;;;;;;15.68;8.77;;;;;;;6.93;100.00;100521.00;5109367;28;20031;-40
2023/04/09 01:17:20;;;;;;;12.90;7.63;;;;;;;6.67;100.00;100506.34;5108798;28;20034;-40
2023/04/09 01:20:13;;;;;;;12.15;7.18;;;;;;;6.72;100.00;100509.28;5108913;28;20104;-40
2023/04/09 01:22:51;;;;;;;11.25;5.88;;;;;;;6.56;100.00;100514.75;5102431;28;20028;-40
2023/04/09 01:25:25;;;;;;;11.70;6.32;;;;;;;6.50;100.00;100516.31;5108797;28;20023;-40
2023/04/09 01:28:04;;;;;;;13.43;7.05;;;;;;;6.43;100.00;100521.47;5108704;28;20040;-41
2023/04/09 01:30:30;;;;;;;13.07;6.75;;;;;;;6.27;100.00;100516.34;5107165;28;20031;-40
2023/04/09 01:32:57;;;;;;;12.35;6.80;;;;;;;6.20;100.00;100515.44;5108517;28;20089;-39
2023/04/09 01:35:25;;;;;;;13.40;6.95;;;;;;;6.24;100.00;100500.81;5108452;28;20467;-41
2023/04/09 01:37:51;;;;;;;12.95;6.78;;;;;;;6.19;100.00;100514.63;5108612;28;20496;-41
2023/04/09 01:40:17;;;;;;;14.43;7.10;;;;;;;6.34;100.00;100516.47;5108299;27;20514;-41
2023/04/09 01:42:43;;;;;;;16.45;7.38;;;;;;;6.27;100.00;100516.34;5108532;28;20570;-40
2023/04/09 01:45:10;;;;;;;35.25;14.80;;;;;;;6.38;100.00;100523.88;5108374;28;20035;-39
2023/04/09 01:47:37;;;;;;;12.68;6.90;;;;;;;6.29;100.00;100524.13;5108386;28;20296;-40
2023/04/09 01:50:02;;;;;;;21.58;10.18;;;;;;;6.26;100.00;100527.94;5108532;28;20035;-39
2023/04/09 01:52:28;;;;;;;28.83;12.75;;;;;;;6.32;100.00;100514.00;5108024;27;20027;-40
2023/04/09 01:54:54;;;;;;;13.88;7.68;;;;;;;6.42;100.00;100519.84;5108414;28;20038;-40
2023/04/09 01:57:19;;;;;;;15.75;8.95;;;;;;;6.32;100.00;100514.00;5108144;28;20435;-40
2023/04/09 01:59:44;;;;;;;13.95;8.82;;;;;;;6.40;100.00;100518.41;5108113;28;20038;-40
2023/04/09 02:02:18;;;;;;;16.77;9.48;;;;;;;6.25;100.00;100518.34;5107168;28;20024;-40
2023/04/09 02:04:48;;;;;;;15.57;8.00;;;;;;;6.32;100.00;100519.28;5108171;28;20027;-41
2023/04/09 02:07:24;;;;;;;11.38;6.72;;;;;;;6.24;100.00;100527.31;5107595;28;20044;-40
2023/04/09 02:09:53;;;;;;;14.00;7.45;;;;;;;6.37;100.00;100506.31;5107891;28;20111;-39
2023/04/09 02:12:20;;;;;;;17.35;10.63;;;;;;;6.49;100.00;100519.94;5107366;28;20035;-41
2023/04/09 02:14:47;;;;;;;14.93;7.85;;;;;;;6.38;100.00;100523.88;5107766;28;20078;-41
2023/04/09 02:17:13;;;;;;;15.35;7.20;;;;;;;6.27;100.00;100526.94;5107902;28;20018;-40
2023/04/09 02:19:38;;;;;;;11.32;6.80;;;;;;;6.41;100.00;100528.78;5107528;28;20020;-40
2023/04/09 02:22:04;;;;;;;13.43;7.07;;;;;;;6.33;100.00;100526.22;5107515;28;20422;-40
2023/04/09 02:24:29;;;;;;;12.85;7.13;;;;;;;6.34;100.00;100527.88;5107512;28;20035;-40
2023/04/09 02:26:55;;;;;;;13.68;7.18;;;;;;;6.12;100.00;100526.09;5107530;28;20022;-40
2023/04/09 02:29:20;;;;;;;14.15;7.40;;;;;;;6.44;100.00;100528.44;5107170;28;20067;-40
2023/04/09 02:31:46;;;;;;;12.25;7.35;;;;;;;6.33;100.00;100525.41;5107378;28;20114;-40
2023/04/09 02:34:11;;;;;;;12.75;7.22;;;;;;;5.96;100.00;100529.69;5107218;28;20031;-40
2023/04/09 02:36:36;;;;;;;14.02;6.90;;;;;;;6.11;100.00;100538.50;5107230;28;20031;-40
2023/04/09 02:39:02;;;;;;;13.98;6.97;;;;;;;6.02;100.00;100540.38;5107393;28;20027;-40
2023/04/09 02:41:28;;;;;;;12.10;6.82;;;;;;;6.01;100.00;100544.03;5098630;28;20097;-40
2023/04/09 02:43:53;;;;;;;12.73;6.80;;;;;;;6.07;100.00;100544.31;5091164;28;20059;-41
2023/04/09 02:46:19;;;;;;;13.15;6.95;;;;;;;6.04;100.00;100548.16;5105658;28;20026;-40
2023/04/09 02:48:44;;;;;;;11.73;6.57;;;;;;;6.06;100.00;100546.16;5105434;28;20416;-42
2023/04/09 02:51:10;;;;;;;15.45;6.85;;;;;;;5.93;100.00;100525.53;5105927;28;20117;-40
2023/04/09 02:53:38;;;;;;;13.63;7.22;;;;;;;6.11;100.00;100553.56;5105727;28;20068;-40
2023/04/09 02:56:03;;;;;;;12.57;6.97;;;;;;;6.03;100.00;100550.00;5105457;28;20571;-41
2023/04/09 02:58:29;;;;;;;15.05;8.75;;;;;;;6.06;100.00;100562.03;5105631;28;20028;-40
2023/04/09 03:00:54;;;;;;;14.07;8.05;;;;;;;5.98;100.00;100560.25;5105960;28;20028;-41
2023/04/09 03:03:19;;;;;;;15.57;8.02;;;;;;;6.16;100.00;100548.56;5106295;28;20020;-40
2023/04/09 03:05:45;;;;;;;14.75;8.32;;;;;;;6.25;100.00;100547.47;5105703;28;20078;-40
2023/04/09 03:08:10;;;;;;;16.20;9.15;;;;;;;6.58;100.00;100555.16;5105900;28;20393;-40
2023/04/09 03:10:36;;;;;;;14.32;8.07;;;;;;;6.59;100.00;100556.78;5106144;27;20419;-40
2023/04/09 03:13:01;;;;;;;16.20;8.93;;;;;;;6.24;100.00;100556.44;5105206;28;20729;-40
2023/04/09 03:15:26;;;;;;;17.45;9.20;;;;;;;6.38;100.00;100560.13;5105666;28;20549;-41
2023/04/09 03:17:52;;;;;;;15.77;8.32;;;;;;;6.12;100.00;100561.34;5105083;27;20023;-40
2023/04/09 03:20:17;;;;;;;13.32;8.65;;;;;;;6.10;100.00;100562.50;5104782;28;20023;-40
2023/04/09 03:22:43;;;;;;;13.88;8.45;;;;;;;5.93;100.00;100561.78;5105636;28;20107;-40
2023/04/09 03:25:08;;;;;;;14.10;7.82;;;;;;;5.76;100.00;100550.47;5105337;28;20527;-42
2023/04/09 03:27:34;;;;;;;14.15;8.38;;;;;;;6.04;100.00;100562.22;5104992;28;20032;-41
2023/04/09 03:29:59;;;;;;;14.40;8.35;;;;;;;6.15;100.00;100565.44;5106048;28;20081;-41
2023/04/09 03:32:25;;;;;;;15.60;9.38;;;;;;;5.96;100.00;100551.69;5105095;28;20031;-40
2023/04/09 03:34:50;;;;;;;17.58;9.57;;;;;;;5.92;100.00;100560.94;5104479;28;20483;-41
2023/04/09 03:37:15;;;;;;;18.08;9.23;;;;;;;5.95;100.00;100558.00;5104786;28;20065;-41
2023/04/09 03:39:41;;;;;;;15.73;9.27;;;;;;;5.95;100.00;100565.94;5104836;28;20449;-41
2023/04/09 03:42:06;;;;;;;14.38;8.93;;;;;;;5.81;100.00;100564.00;5090295;28;20024;-40
2023/04/09 03:44:32;;;;;;;17.25;9.13;;;;;;;6.11;100.00;100572.94;5104757;28;20030;-40
2023/04/09 03:46:57;;;;;;;26.73;18.00;;;;;;;6.17;100.00;100569.59;5105352;28;20019;-41
2023/04/09 03:49:23;;;;;;;21.30;13.15;;;;;;;6.13;100.00;100570.09;5105760;28;20093;-40
2023/04/09 03:51:48;;;;;;;28.92;13.27;;;;;;;6.23;100.00;100574.16;5106140;28;20028;-40
2023/04/09 03:54:13;;;;;;;19.92;12.10;;;;;;;6.08;100.00;100569.81;5105942;28;20028;-40
2023/04/09 03:56:39;;;;;;;26.25;13.48;;;;;;;6.15;100.00;100581.31;5104313;28;20024;-41
2023/04/09 03:59:05;;;;;;;18.02;11.93;;;;;;;6.06;100.00;100574.47;5105621;28;20100;-40
2023/04/09 04:01:30;;;;;;;18.20;10.13;;;;;;;6.11;100.00;100580.03;5104244;28;20703;-40
2023/04/09 04:03:56;;;;;;;18.33;10.18;;;;;;;6.07;100.00;100578.75;5106223;28;20504;-40
2023/04/09 04:06:21;;;;;;;22.48;12.05;;;;;;;6.26;100.00;100570.31;5104320;28;20473;-41
2023/04/09 04:08:47;;;;;;;20.25;13.35;;;;;;;6.34;100.00;100578.22;5105617;28;20034;-41
2023/04/09 04:11:12;;;;;;;18.25;10.82;;;;;;;6.59;100.00;100576.16;5106443;28;20027;-40
2023/04/09 04:13:38;;;;;;;35.03;22.92;;;;;;;6.57;100.00;100582.66;5105265;28;20036;-40
2023/04/09 04:16:07;;;;;;;74.53;43.50;;;;;;;6.74;100.00;100583.31;5105417;28;20521;-40
2023/04/09 04:18:32;;;;;;;37.08;21.33;;;;;;;6.84;100.00;100576.75;5105895;28;20118;-40
2023/04/09 04:20:57;;;;;;;25.73;14.48;;;;;;;7.05;100.00;100585.81;5105971;28;20472;-40
2023/04/09 04:23:23;;;;;;;35.95;25.92;;;;;;;6.98;100.00;100587.53;5105832;28;20028;-40
2023/04/09 04:25:48;;;;;;;25.85;16.15;;;;;;;7.13;100.00;100585.72;5109064;28;20031;-40
2023/04/09 04:28:14;;;;;;;29.10;18.75;;;;;;;6.81;100.00;100589.53;5109162;28;20050;-42
2023/04/09 04:30:42;;;;;;;20.98;12.60;;;;;;;6.96;100.00;100586.91;5109703;28;20039;-41
2023/04/09 04:33:07;;;;;;;;;;;;;;;6.91;100.00;100594.59;5110372;28;20053;-41
2023/04/09 04:35:33;;;;;;;22.67;12.65;;;;;;;6.86;100.00;100599.59;5108926;28;19972;-40
2023/04/09 04:37:58;;;;;;;26.38;14.73;;;;;;;6.93;100.00;100600.53;5109425;28;20103;-40
2023/04/09 04:40:24;;;;;;;28.80;17.60;;;;;;;7.19;100.00;100606.22;5109140;28;20100;-40
2023/04/09 04:42:49;;;;;;;20.40;11.70;;;;;;;7.01;100.00;100601.25;5109387;28;20032;-40
2023/04/09 04:45:15;;;;;;;20.25;11.32;;;;;;;7.26;100.00;100593.03;5108213;28;20469;-41
2023/04/09 04:47:40;;;;;;;21.08;12.32;;;;;;;7.24;100.00;100595.84;5109288;28;20088;-40
2023/04/09 04:50:06;;;;;;;22.73;11.55;;;;;;;7.69;100.00;100610.91;5109399;28;20058;-39
2023/04/09 04:52:32;;;;;;;20.23;11.55;;;;;;;7.52;100.00;100604.97;5109418;28;20035;-40
2023/04/09 04:54:57;;;;;;;18.55;10.32;;;;;;;7.44;100.00;100603.25;5108333;28;20031;-40
2023/04/09 04:57:22;;;;;;;20.75;10.88;;;;;;;7.64;100.00;100603.47;5108970;28;20016;-40
2023/04/09 04:59:48;;;;;;;30.35;15.75;;;;;;;7.99;100.00;100604.50;5108776;28;20520;-40
2023/04/09 05:02:13;;;;;;;22.40;11.98;;;;;;;7.71;100.00;100603.59;5109058;28;20016;-40
2023/04/09 05:04:39;;;;;;;25.45;13.05;;;;;;;7.69;100.00;100610.91;5109073;28;20056;-40
2023/04/09 05:07:04;;;;;;;17.08;9.65;;;;;;;7.71;100.00;100603.59;5109341;28;20501;-40
2023/04/09 05:09:30;;;;;;;20.02;9.60;;;;;;;7.73;100.00;100604.22;5108619;28;20517;-41
2023/04/09 05:11:56;;;;;;;18.15;9.63;;;;;;;7.51;100.00;100604.16;5108752;28;20024;-40
2023/04/09 05:14:21;;;;;;;16.60;9.38;;;;;;;7.66;100.00;100604.13;5108706;28;20123;-42
2023/04/09 05:16:47;;;;;;;36.47;17.02;;;;;;;7.54;100.00;100601.16;5109098;28;20027;-40
2023/04/09 05:19:12;;;;;;;20.42;10.82;;;;;;;7.58;100.00;100599.75;5108682;28;20039;-39
2023/04/09 05:21:38;;;;;;;39.67;21.73;;;;;;;7.69;100.00;100605.59;5108929;28;20034;-40
2023/04/09 05:24:03;;;;;;;26.08;15.18;;;;;;;7.83;100.00;100610.06;5108786;28;20023;-42
2023/04/09 05:26:29;;;;;;;17.88;9.57;;;;;;;7.81;100.00;100588.19;5108209;28;20031;-40
2023/04/09 05:28:55;;;;;;;21.13;13.30;;;;;;;7.92;100.00;100600.94;5107822;28;20788;-42
2023/04/09 05:31:20;;;;;;;19.15;10.35;;;;;;;7.90;100.00;100602.97;5108418;28;20023;-39
2023/04/09 05:33:46;;;;;;;20.75;13.13;;;;;;;8.26;100.00;100602.09;5108234;28;20032;-40
2023/04/09 05:36:16;;;;;;;19.73;12.70;;;;;;;8.16;100.00;100602.41;5107558;28;20020;-39
2023/04/09 05:38:42;;;;;;;21.52;12.07;;;;;;;7.94;100.00;100608.72;5119207;27;20024;-40
2023/04/09 05:41:07;;;;;;;31.67;16.80;;;;;;;8.19;100.00;100609.19;5106436;27;20036;-40
2023/04/09 05:43:33;;;;;;;20.25;12.05;;;;;;;8.16;100.00;100610.38;5114257;27;20039;-40
2023/04/09 05:45:58;;;;;;;15.05;8.88;;;;;;;8.19;100.00;100614.50;5115309;27;20039;-40
2023/04/09 05:48:23;;;;;;;14.40;8.05;;;;;;;8.04;100.00;100618.03;5121686;27;20031;-38
2023/04/09 05:50:52;;;;;;;14.90;8.30;;;;;;;8.18;100.00;100608.38;5111679;27;20031;-40
2023/04/09 05:53:18;;;;;;;16.45;9.23;;;;;;;8.18;100.00;100615.53;5118118;27;20026;-40
2023/04/09 05:55:45;;;;;;;18.10;9.68;;;;;;;8.16;100.00;100609.56;5116612;27;20042;-40
2023/04/09 05:58:11;;;;;;;13.10;8.00;;;;;;;8.02;100.00;100590.84;5114437;27;20085;-40
2023/04/09 06:00:36;;;;;;;24.85;14.23;;;;;;;8.20;100.00;100611.66;5121418;27;20060;-39
2023/04/09 06:03:02;;;;;;;26.05;13.63;;;;;;;7.94;100.00;100604.22;5114624;27;20019;-40
2023/04/09 06:05:27;;;;;;;17.80;9.35;;;;;;;7.94;100.00;100606.88;5118777;27;20451;-40
2023/04/09 06:07:53;;;;;;;76.15;31.20;;;;;;;7.86;100.00;100601.69;5118028;27;20023;-40
2023/04/09 06:10:18;;;;;;;17.17;9.10;;;;;;;8.01;100.00;100605.13;5116259;27;20074;-40
2023/04/09 06:12:44;;;;;;;18.73;11.70;;;;;;;8.22;100.00;100608.81;5110620;27;20034;-41
2023/04/09 06:15:10;;;;;;;45.78;26.88;;;;;;;8.43;100.00;100608.81;5116445;27;20031;-40
2023/04/09 06:17:35;;;;;;;15.95;7.97;;;;;;;8.51;100.00;100609.72;5117205;27;20019;-40
2023/04/09 06:20:01;;;;;;;41.63;27.10;;;;;;;9.05;100.00;100606.41;5118672;27;20465;-42
2023/04/09 06:22:26;;;;;;;14.10;7.72;;;;;;;8.68;100.00;100616.38;5116540;27;20609;-40
2023/04/09 06:24:51;;;;;;;15.55;8.63;;;;;;;8.85;100.00;100611.63;5115265;27;20027;-39
2023/04/09 06:27:17;;;;;;;32.35;22.48;;;;;;;9.04;100.00;100626.88;5120822;27;20065;-40
2023/04/09 06:29:43;;;;;;;54.80;35.03;;;;;;;8.99;100.00;100617.81;5119061;27;20126;-38
2023/04/09 06:32:08;;;;;;;258.27;148.18;;;;;;;9.41;100.00;100624.81;5113708;27;20145;-40
2023/04/09 06:34:34;;;;;;;841.10;474.83;;;;;;;9.91;96.65;100627.28;5120100;27;20039;-40
2023/04/09 06:37:00;;;;;;;90.03;42.78;;;;;;;9.59;97.37;100615.50;5118932;27;20035;-40
2023/04/09 06:39:26;;;;;;;9.32;6.70;;;;;;;9.52;94.91;100619.97;5116584;27;20788;-40
2023/04/09 06:41:52;;;;;;;17.23;15.48;;;;;;;9.17;98.68;100627.97;5119907;27;20100;-40
2023/04/09 06:44:18;;;;;;;35.08;31.65;;;;;;;9.30;97.18;100621.94;5114233;27;20427;-41
2023/04/09 06:46:44;;;;;;;17.23;12.13;;;;;;;9.44;96.56;100636.94;5107015;27;20485;-40
2023/04/09 06:49:09;;;;;;;12.63;5.32;;;;;;;9.05;98.15;100633.00;5109311;27;20499;-40
2023/04/09 06:51:35;;;;;;;9.50;5.72;;;;;;;9.03;100.00;100624.41;5115792;27;20491;-40
2023/04/09 06:54:00;;;;;;;12.15;6.97;;;;;;;9.70;97.18;100622.91;5109129;27;20076;-40
2023/04/09 06:56:26;;;;;;;18.48;14.35;;;;;;;9.73;94.38;100624.38;5115471;27;20015;-40
2023/04/09 06:58:51;;;;;;;17.90;12.93;;;;;;;9.79;95.91;100627.03;5109317;27;20468;-40
2023/04/09 07:01:16;;;;;;;29.63;26.48;;;;;;;9.77;94.06;100620.28;5110156;27;20055;-40
2023/04/09 07:03:42;;;;;;;24.17;19.98;;;;;;;9.75;94.68;100622.31;5106487;28;20088;-38
2023/04/09 07:06:07;;;;;;;20.70;16.17;;;;;;;9.56;96.04;100618.53;5117793;27;20432;-40
2023/04/09 07:08:33;;;;;;;11.82;8.25;;;;;;;9.27;95.08;100609.00;5118046;27;20023;-40
2023/04/09 07:10:58;;;;;;;32.85;19.92;;;;;;;9.74;94.57;100616.16;5114412;27;20032;-40
2023/04/09 07:13:24;;;;;;;30.30;27.00;;;;;;;9.94;92.96;100621.56;5119943;27;20043;-39
2023/04/09 07:15:49;;;;;;;22.65;13.35;;;;;;;9.77;93.57;100623.75;5114942;27;20080;-40
2023/04/09 07:18:15;;;;;;;16.73;13.27;;;;;;;9.70;92.35;100627.41;5120029;27;20479;-40
2023/04/09 07:20:40;;;;;;;13.15;10.02;;;;;;;9.92;92.54;100634.25;5113133;27;20028;-38
2023/04/09 07:23:05;;;;;;;50.17;25.40;;;;;;;10.58;89.55;100638.06;5120071;27;20034;-40
2023/04/09 07:25:31;;;;;;;93.00;71.72;;;;;;;10.21;89.04;100634.94;5111696;27;20084;-41
2023/04/09 07:27:57;;;;;;;13.07;6.90;;;;;;;10.32;90.48;100630.88;5118230;27;20027;-40
2023/04/09 07:30:22;;;;;;;34.42;15.10;;;;;;;9.93;93.94;100627.91;5118061;27;20103;-40
2023/04/09 07:32:48;;;;;;;29.92;13.00;;;;;;;10.20;93.30;100636.78;5120751;27;20020;-40
2023/04/09 07:35:13;;;;;;;26.40;13.27;;;;;;;10.29;89.72;100629.41;5119823;28;20179;-40
2023/04/09 07:37:39;;;;;;;138.15;46.10;;;;;;;10.21;90.76;100613.59;5115284;28;20415;-39
2023/04/09 07:40:05;;;;;;;55.33;21.60;;;;;;;10.59;89.75;100624.53;5110359;28;20028;-42
2023/04/09 07:42:31;;;;;;;148.90;44.40;;;;;;;10.29;89.35;100629.41;5104261;28;20038;-38
2023/04/09 07:44:56;;;;;;;95.13;43.75;;;;;;;10.35;89.65;100612.63;5113670;28;20050;-40
2023/04/09 07:47:22;;;;;;;73.25;25.75;;;;;;;10.52;89.30;100628.22;5126608;28;20055;-39
2023/04/09 07:49:48;;;;;;;44.30;16.30;;;;;;;10.13;90.68;100617.28;5126313;28;20398;-40
2023/04/09 07:52:14;;;;;;;195.10;53.78;;;;;;;9.97;90.95;100620.31;5125779;28;20105;-40
2023/04/09 07:54:39;;;;;;;174.75;48.05;;;;;;;10.47;89.86;100622.69;5126353;27;20030;-41
2023/04/09 07:57:05;;;;;;;33.38;13.48;;;;;;;11.07;88.29;100615.47;5125982;28;20019;-40
2023/04/09 07:59:31;;;;;;;44.20;17.00;;;;;;;11.10;90.47;100620.41;5128350;27;20023;-40
2023/04/09 08:01:57;;;;;;;170.07;53.95;;;;;;;11.06;85.73;100627.19;5130414;27;20042;-40
2023/04/09 08:04:23;;;;;;;8.98;5.68;;;;;;;10.63;89.48;100630.31;5130772;27;20600;-40
2023/04/09 08:06:52;;;;;;;17.25;9.63;;;;;;;10.79;91.20;100629.88;5130909;27;20130;-40
2023/04/09 08:09:18;;;;;;;11.05;5.93;;;;;;;10.95;88.80;100633.97;5130761;27;20034;-40
2023/04/09 08:11:46;;;;;;;11.30;6.10;;;;;;;10.51;89.97;100627.41;5130665;27;20550;-40
2023/04/09 08:14:12;;;;;;;;;;;;;;;10.59;92.51;100626.41;5130961;27;20058;-40
2023/04/09 08:16:40;;;;;;;51.58;23.75;;;;;;;10.99;88.55;100637.88;5130830;27;19954;-39
2023/04/09 08:19:05;;;;;;;10.60;5.90;;;;;;;11.19;89.51;100635.16;5130800;27;20027;-40
2023/04/09 08:21:31;;;;;;;11.32;6.70;;;;;;;11.32;86.92;100634.31;5130095;27;20423;-39
2023/04/09 08:24:00;;;;;;;15.40;9.65;;;;;;;11.68;85.25;100637.47;5130342;27;20019;-40
2023/04/09 08:26:25;;;;;;;9.75;5.25;;;;;;;11.35;86.46;100633.06;5130202;27;20419;-38
2023/04/09 08:28:51;;;;;;;14.80;7.75;;;;;;;11.66;87.61;100630.47;5128877;27;20028;-40
2023/04/09 08:31:16;;;;;;;33.75;16.48;;;;;;;11.70;82.33;100630.06;5130049;27;20030;-40
2023/04/09 08:33:41;;;;;;;13.70;8.85;;;;;;;12.11;80.84;100642.22;5130476;27;20019;-38
2023/04/09 08:36:08;;;;;;;9.00;5.05;;;;;;;12.07;82.68;100641.81;5130390;27;20822;-40
2023/04/09 08:38:33;;;;;;;12.65;8.30;;;;;;;12.19;79.93;100636.63;5130193;27;20023;-39
2023/04/09 08:40:58;;;;;;;11.45;6.68;;;;;;;12.08;79.58;100638.13;5129815;27;20076;-38
2023/04/09 08:43:27;;;;;;;9.88;5.55;;;;;;;12.34;81.34;100641.66;5130159;27;20412;-40
2023/04/09 08:45:56;;;;;;;;;;;;;;;12.68;77.14;100636.88;5130487;27;20041;-39
2023/04/09 08:48:23;;;;;;;11.35;7.03;;;;;;;13.03;78.06;100635.31;5129517;27;19947;-39
2023/04/09 08:50:48;;;;;;;8.50;5.80;;;;;;;12.96;80.24;100642.59;5129516;27;20016;-41
2023/04/09 08:53:16;;;;;;;8.90;5.40;;;;;;;12.49;79.40;100622.63;5129956;27;20027;-40
2023/04/09 08:55:44;;;;;;;32.88;21.98;;;;;;;12.74;77.69;100636.81;5129515;27;20027;-40
2023/04/09 08:58:10;;;;;;;;;;;;;;;12.78;78.68;100631.84;5130143;27;20035;-40
2023/04/09 09:00:36;;;;;;;14.07;8.10;;;;;;;12.80;78.46;100635.13;5129866;27;19919;-41
2023/04/09 09:03:10;;;;;;;10.88;6.45;;;;;;;13.76;78.38;100622.19;5129479;27;20113;-39
2023/04/09 09:05:38;;;;;;;10.85;6.50;;;;;;;13.70;76.21;100623.91;5129576;27;20055;-40
2023/04/09 09:08:04;;;;;;;10.82;6.80;;;;;;;13.66;75.27;100602.06;5129248;27;20031;-38
2023/04/09 09:10:45;;;;;;;11.25;5.40;;;;;;;13.30;77.01;100605.63;5128159;27;20037;-39
2023/04/09 09:13:25;;;;;;;11.45;6.82;;;;;;;14.73;75.61;100624.69;5129336;27;20023;-38
2023/04/09 09:15:54;;;;;;;11.70;9.75;;;;;;;14.51;71.56;100618.22;5129242;27;20046;-40
2023/04/09 09:18:21;;;;;;;9.63;6.68;;;;;;;15.08;72.94;100613.13;5129355;27;20039;-39
2023/04/09 09:20:46;;;;;;;9.43;6.10;;;;;;;15.78;68.03;100600.59;5129407;27;20030;-39
2023/04/09 09:23:12;;;;;;;8.77;5.43;;;;;;;16.09;64.96;100617.28;5129348;27;20027;-39
2023/04/09 09:25:41;;;;;;;7.93;4.95;;;;;;;15.52;63.32;100613.50;5129399;27;20027;-38
2023/04/09 09:28:11;;;;;;;8.20;5.63;;;;;;;15.83;60.52;100608.72;5128982;27;20034;-38
2023/04/09 09:30:38;;;;;;;7.65;4.55;;;;;;;14.86;63.35;100611.03;5129188;27;20720;-37
2023/04/09 09:33:10;;;;;;;9.30;5.03;;;;;;;16.41;60.39;100615.69;5129162;27;20110;-39
2023/04/09 09:35:49;;;;;;;9.15;5.20;;;;;;;15.54;60.02;100603.31;5129147;27;20039;-38
2023/04/09 09:38:15;;;;;;;7.45;4.90;;;;;;;15.58;63.50;100606.34;5128640;27;20118;-39
2023/04/09 09:40:41;;;;;;;8.23;4.65;;;;;;;15.84;56.68;100605.00;5118447;27;20076;-40
2023/04/09 09:43:07;;;;;;;8.90;4.57;;;;;;;15.18;58.02;100597.22;5087968;28;20463;-39
2023/04/09 09:45:32;;;;;;;7.30;4.30;;;;;;;15.71;57.87;100599.88;5087967;28;21161;-40
2023/04/09 09:47:58;;;;;;;7.28;5.07;;;;;;;15.99;54.78;100597.19;5087350;28;20403;-40
2023/04/09 09:50:24;;;;;;;6.90;4.50;;;;;;;16.52;54.65;100602.41;5087153;28;20097;-40
2023/04/09 09:52:56;;;;;;;7.53;4.15;;;;;;;14.99;57.55;100582.28;5087329;28;20081;-41
2023/04/09 09:55:23;;;;;;;7.95;5.30;;;;;;;15.45;58.16;100585.94;5087163;28;20067;-40
2023/04/09 09:57:52;;;;;;;6.65;4.38;;;;;;;16.08;55.54;100576.13;5120072;27;20054;-37
2023/04/09 10:00:20;;;;;;;6.85;4.25;;;;;;;15.78;54.43;100574.50;5087356;28;20039;-39
2023/04/09 10:02:57;;;;;;;13.75;5.68;;;;;;;15.52;58.15;100553.53;5087283;28;20032;-42
2023/04/09 10:05:26;;;;;;;6.60;4.20;;;;;;;16.17;54.13;100579.22;5087246;28;20035;-38
2023/04/09 10:07:56;;;;;;;7.13;4.60;;;;;;;15.85;56.53;100572.50;5087458;28;20020;-41
2023/04/09 10:10:23;;;;;;;7.72;4.78;;;;;;;15.55;56.46;100566.50;5087377;28;20035;-41
2023/04/09 10:12:51;;;;;;;6.75;4.20;;;;;;;15.62;56.06;100559.91;5087765;28;20035;-39
2023/04/09 10:15:17;;;;;;;6.57;3.90;;;;;;;16.51;55.67;100549.59;5087317;28;20028;-39
2023/04/09 10:17:43;;;;;;;6.25;4.00;;;;;;;16.47;52.91;100563.56;5087310;28;20071;-39
2023/04/09 10:20:17;;;;;;;7.63;3.88;;;;;;;16.39;53.15;100555.09;5087036;28;20097;-39
2023/04/09 10:22:47;;;;;;;10.25;6.72;;;;;;;16.72;51.04;100562.31;5086499;28;20401;-40
2023/04/09 10:25:13;;;;;;;7.70;4.72;;;;;;;16.42;52.94;100566.16;5087205;28;20776;-39
2023/04/09 10:27:38;;;;;;;7.15;4.10;;;;;;;16.98;50.05;100565.38;5087189;28;20034;-43
2023/04/09 10:30:09;;;;;;;10.50;8.32;;;;;;;17.23;48.84;100568.41;5087261;28;20032;-39
2023/04/09 10:32:35;;;;;;;8.73;4.57;;;;;;;17.87;46.38;100556.19;5087029;28;20015;-41
2023/04/09 10:35:02;;;;;;;5.72;3.72;;;;;;;17.10;49.66;100558.03;5087205;28;20036;-40
2023/04/09 10:37:28;;;;;;;11.00;6.25;;;;;;;17.96;48.03;100554.66;5086926;28;20097;-40
2023/04/09 10:39:55;;;;;;;6.75;3.80;;;;;;;17.69;48.72;100538.44;5087047;28;20466;-39
2023/04/09 10:42:31;;;;;;;6.15;3.78;;;;;;;17.63;48.89;100536.75;5086886;28;20027;-41
2023/04/09 10:45:05;;;;;;;7.43;3.80;;;;;;;18.01;49.09;100519.63;5086676;28;20024;-41
2023/04/09 10:47:35;;;;;;;13.48;4.53;;;;;;;17.77;47.69;100523.69;5086908;28;20030;-38
2023/04/09 10:50:21;;;;;;;6.82;3.80;;;;;;;18.22;45.73;100527.88;5086630;28;20051;-41
2023/04/09 10:52:51;;;;;;;7.03;3.30;;;;;;;18.35;44.02;100530.16;5102402;28;20027;-41
2023/04/09 10:55:38;;;;;;;8.20;4.65;;;;;;;17.77;43.78;100518.28;5086727;28;20486;-39
2023/04/09 10:58:09;;;;;;;102.03;13.77;;;;;;;18.66;40.64;100516.84;5086644;28;20035;-42
2023/04/09 11:00:39;;;;;;;6.43;3.13;;;;;;;18.13;42.99;100514.06;5086745;28;20024;-40
2023/04/09 11:03:07;;;;;;;4.43;3.00;;;;;;;17.12;40.64;100509.25;5086658;28;20028;-42
2023/04/09 11:05:38;;;;;;;12.98;3.78;;;;;;;17.83;39.53;100509.22;5086297;28;20036;-40
2023/04/09 11:08:04;;;;;;;6.18;3.60;;;;;;;17.95;42.27;100501.75;5085869;28;20115;-40
2023/04/09 11:10:33;;;;;;;7.05;3.88;;;;;;;17.93;35.34;100506.59;5086557;28;20115;-40
2023/04/09 11:13:00;;;;;;;7.18;4.53;;;;;;;17.75;36.92;100504.25;5086331;28;20052;-40
2023/04/09 11:15:26;;;;;;;5.65;3.10;;;;;;;18.03;37.39;100505.88;5086495;28;20027;-41